sensor_id;sensor_type;location;lat;lon;timestamp;P1;durP1;ratioP1;P2;durP2;ratioP2
10586;SDS011;5341;47.606;7.576;2023-04-29T00:02:12;3.65;;;2.60;;
10586;SDS011;5341;47.606;7.576;2023-04-29T00:04:39;3.63;;;2.72;;
10586;SDS011;5341;47.606;7.576;2023-04-29T00:07:07;4.03;;;3.00;;
10586;SDS011;5341;47.606;7.576;2023-04-29T00:09:34;3.67;;;2.47;;
10586;SDS011;5341;47.606;7.576;2023-04-29T00:12:03;7.05;;;2.85;;
10586;SDS011;5341;47.606;7.576;2023-04-29T00:14:32;3.75;;;2.80;;
10586;SDS011;5341;47.606;7.576;2023-04-29T00:17:00;5.88;;;2.60;;
10586;SDS011;5341;47.606;7.576;2023-04-29T00:19:28;3.92;;;3.00;;
10586;SDS011;5341;47.606;7.576;2023-04-29T00:21:57;3.22;;;2.92;;
10586;SDS011;5341;47.606;7.576;2023-04-29T00:24:26;6.10;;;3.10;;
10586;SDS011;5341;47.606;7.576;2023-04-29T00:26:54;3.90;;;2.67;;
10586;SDS011;5341;47.606;7.576;2023-04-29T00:29:21;3.67;;;2.80;;
10586;SDS011;5341;47.606;7.576;2023-04-29T00:31:50;4.75;;;2.70;;
10586;SDS011;5341;47.606;7.576;2023-04-29T00:34:17;6.80;;;2.83;;
10586;SDS011;5341;47.606;7.576;2023-04-29T00:36:45;3.88;;;2.50;;
10586;SDS011;5341;47.606;7.576;2023-04-29T00:39:13;4.75;;;2.70;;
10586;SDS011;5341;47.606;7.576;2023-04-29T00:41:40;4.80;;;2.45;;
10586;SDS011;5341;47.606;7.576;2023-04-29T00:44:09;7.28;;;2.80;;
10586;SDS011;5341;47.606;7.576;2023-04-29T00:46:37;3.15;;;2.40;;
10586;SDS011;5341;47.606;7.576;2023-04-29T00:49:05;3.25;;;2.42;;
10586;SDS011;5341;47.606;7.576;2023-04-29T00:51:34;3.78;;;2.55;;
10586;SDS011;5341;47.606;7.576;2023-04-29T00:54:02;6.57;;;3.00;;
10586;SDS011;5341;47.606;7.576;2023-04-29T00:56:32;3.25;;;2.45;;
10586;SDS011;5341;47.606;7.576;2023-04-29T00:59:02;4.10;;;2.30;;
10586;SDS011;5341;47.606;7.576;2023-04-29T01:01:30;4.50;;;2.88;;
10586;SDS011;5341;47.606;7.576;2023-04-29T01:03:58;2.92;;;2.40;;
10586;SDS011;5341;47.606;7.576;2023-04-29T01:06:29;2.80;;;2.22;;
10586;SDS011;5341;47.606;7.576;2023-04-29T01:09:17;3.17;;;2.45;;
10586;SDS011;5341;47.606;7.576;2023-04-29T01:11:59;3.35;;;2.30;;
10586;SDS011;5341;47.606;7.576;2023-04-29T01:14:34;2.20;;;1.90;;
10586;SDS011;5341;47.606;7.576;2023-04-29T01:17:08;3.40;;;2.60;;
10586;SDS011;5341;47.606;7.576;2023-04-29T01:19:43;3.58;;;2.30;;
10586;SDS011;5341;47.606;7.576;2023-04-29T01:22:15;2.80;;;2.30;;
10586;SDS011;5341;47.606;7.576;2023-04-29T01:24:46;2.30;;;2.10;;
10586;SDS011;5341;47.606;7.576;2023-04-29T01:27:17;3.22;;;2.30;;
10586;SDS011;5341;47.606;7.576;2023-04-29T01:30:02;3.65;;;2.10;;
10586;SDS011;5341;47.606;7.576;2023-04-29T01:32:40;3.42;;;2.17;;
10586;SDS011;5341;47.606;7.576;2023-04-29T01:35:16;3.20;;;2.15;;
10586;SDS011;5341;47.606;7.576;2023-04-29T01:37:57;2.85;;;2.55;;
10586;SDS011;5341;47.606;7.576;2023-04-29T01:40:41;4.30;;;2.30;;
10586;SDS011;5341;47.606;7.576;2023-04-29T01:43:18;5.20;;;2.28;;
10586;SDS011;5341;47.606;7.576;2023-04-29T01:45:49;6.10;;;2.50;;
10586;SDS011;5341;47.606;7.576;2023-04-29T01:48:21;5.18;;;2.65;;
10586;SDS011;5341;47.606;7.576;2023-04-29T01:50:49;4.25;;;2.55;;
10586;SDS011;5341;47.606;7.576;2023-04-29T01:53:17;2.90;;;2.60;;
10586;SDS011;5341;47.606;7.576;2023-04-29T01:55:46;3.10;;;2.65;;
10586;SDS011;5341;47.606;7.576;2023-04-29T01:58:20;3.67;;;2.58;;
10586;SDS011;5341;47.606;7.576;2023-04-29T02:01:05;2.97;;;2.50;;
10586;SDS011;5341;47.606;7.576;2023-04-29T02:03:35;5.88;;;3.00;;
10586;SDS011;5341;47.606;7.576;2023-04-29T02:06:06;5.72;;;2.42;;
10586;SDS011;5341;47.606;7.576;2023-04-29T02:08:35;2.58;;;2.38;;
10586;SDS011;5341;47.606;7.576;2023-04-29T02:11:04;9.20;;;3.13;;
10586;SDS011;5341;47.606;7.576;2023-04-29T02:13:41;5.40;;;2.72;;
10586;SDS011;5341;47.606;7.576;2023-04-29T02:16:10;3.28;;;2.35;;
10586;SDS011;5341;47.606;7.576;2023-04-29T02:18:46;3.22;;;2.35;;
10586;SDS011;5341;47.606;7.576;2023-04-29T02:21:13;3.65;;;2.42;;
10586;SDS011;5341;47.606;7.576;2023-04-29T02:23:41;3.20;;;2.20;;
10586;SDS011;5341;47.606;7.576;2023-04-29T02:26:10;3.63;;;2.50;;
10586;SDS011;5341;47.606;7.576;2023-04-29T02:28:39;3.22;;;2.22;;
10586;SDS011;5341;47.606;7.576;2023-04-29T02:31:07;6.35;;;2.35;;
10586;SDS011;5341;47.606;7.576;2023-04-29T02:33:35;3.25;;;2.65;;
10586;SDS011;5341;47.606;7.576;2023-04-29T02:36:02;4.28;;;2.25;;
10586;SDS011;5341;47.606;7.576;2023-04-29T02:38:32;4.13;;;2.47;;
10586;SDS011;5341;47.606;7.576;2023-04-29T02:41:00;4.30;;;2.50;;
10586;SDS011;5341;47.606;7.576;2023-04-29T02:43:29;4.90;;;2.70;;
10586;SDS011;5341;47.606;7.576;2023-04-29T02:45:57;8.30;;;3.03;;
10586;SDS011;5341;47.606;7.576;2023-04-29T02:48:25;5.05;;;3.10;;
10586;SDS011;5341;47.606;7.576;2023-04-29T02:50:52;5.30;;;3.05;;
10586;SDS011;5341;47.606;7.576;2023-04-29T02:53:20;4.93;;;3.90;;
10586;SDS011;5341;47.606;7.576;2023-04-29T02:55:48;8.82;;;4.10;;
10586;SDS011;5341;47.606;7.576;2023-04-29T02:58:15;4.25;;;3.72;;
10586;SDS011;5341;47.606;7.576;2023-04-29T03:00:45;4.72;;;4.03;;
10586;SDS011;5341;47.606;7.576;2023-04-29T03:03:13;7.05;;;4.25;;
10586;SDS011;5341;47.606;7.576;2023-04-29T03:05:40;5.00;;;3.95;;
10586;SDS011;5341;47.606;7.576;2023-04-29T03:08:08;5.05;;;4.22;;
10586;SDS011;5341;47.606;7.576;2023-04-29T03:10:36;5.82;;;3.85;;
10586;SDS011;5341;47.606;7.576;2023-04-29T03:13:04;8.05;;;4.53;;
10586;SDS011;5341;47.606;7.576;2023-04-29T03:15:32;4.05;;;3.70;;
10586;SDS011;5341;47.606;7.576;2023-04-29T03:18:01;4.30;;;3.80;;
10586;SDS011;5341;47.606;7.576;2023-04-29T03:20:29;4.22;;;3.53;;
10586;SDS011;5341;47.606;7.576;2023-04-29T03:23:00;7.65;;;3.65;;
10586;SDS011;5341;47.606;7.576;2023-04-29T03:25:28;3.95;;;3.65;;
10586;SDS011;5341;47.606;7.576;2023-04-29T03:27:55;5.25;;;3.60;;
10586;SDS011;5341;47.606;7.576;2023-04-29T03:30:23;5.45;;;3.50;;
10586;SDS011;5341;47.606;7.576;2023-04-29T03:32:54;8.27;;;3.60;;
10586;SDS011;5341;47.606;7.576;2023-04-29T03:35:23;5.80;;;3.17;;
10586;SDS011;5341;47.606;7.576;2023-04-29T03:38:12;3.58;;;3.05;;
10586;SDS011;5341;47.606;7.576;2023-04-29T03:40:41;3.35;;;2.97;;
10586;SDS011;5341;47.606;7.576;2023-04-29T03:43:13;3.53;;;3.10;;
10586;SDS011;5341;47.606;7.576;2023-04-29T03:45:41;3.35;;;2.90;;
10586;SDS011;5341;47.606;7.576;2023-04-29T03:48:12;4.90;;;2.90;;
10586;SDS011;5341;47.606;7.576;2023-04-29T03:50:42;3.55;;;2.97;;
10586;SDS011;5341;47.606;7.576;2023-04-29T03:53:10;3.13;;;2.78;;
10586;SDS011;5341;47.606;7.576;2023-04-29T03:55:38;4.38;;;2.97;;
10586;SDS011;5341;47.606;7.576;2023-04-29T03:58:06;4.60;;;3.03;;
10586;SDS011;5341;47.606;7.576;2023-04-29T04:00:34;3.65;;;2.60;;
10586;SDS011;5341;47.606;7.576;2023-04-29T04:03:12;6.05;;;2.58;;
10586;SDS011;5341;47.606;7.576;2023-04-29T04:05:39;4.18;;;2.55;;
10586;SDS011;5341;47.606;7.576;2023-04-29T04:08:12;4.35;;;2.75;;
10586;SDS011;5341;47.606;7.576;2023-04-29T04:10:48;4.13;;;2.50;;
10586;SDS011;5341;47.606;7.576;2023-04-29T04:13:31;3.15;;;2.30;;
10586;SDS011;5341;47.606;7.576;2023-04-29T04:15:59;3.58;;;2.60;;
10586;SDS011;5341;47.606;7.576;2023-04-29T04:18:27;2.90;;;2.40;;
10586;SDS011;5341;47.606;7.576;2023-04-29T04:20:58;4.95;;;2.40;;
10586;SDS011;5341;47.606;7.576;2023-04-29T04:23:33;3.03;;;2.47;;
10586;SDS011;5341;47.606;7.576;2023-04-29T04:26:02;4.22;;;2.42;;
10586;SDS011;5341;47.606;7.576;2023-04-29T04:28:48;3.08;;;2.20;;
10586;SDS011;5341;47.606;7.576;2023-04-29T04:31:22;3.45;;;2.40;;
10586;SDS011;5341;47.606;7.576;2023-04-29T04:33:50;4.40;;;2.33;;
10586;SDS011;5341;47.606;7.576;2023-04-29T04:36:18;2.22;;;2.03;;
10586;SDS011;5341;47.606;7.576;2023-04-29T04:38:47;2.20;;;2.00;;
10586;SDS011;5341;47.606;7.576;2023-04-29T04:41:15;3.88;;;2.15;;
10586;SDS011;5341;47.606;7.576;2023-04-29T04:43:45;3.92;;;2.30;;
10586;SDS011;5341;47.606;7.576;2023-04-29T04:46:19;5.32;;;2.28;;
10586;SDS011;5341;47.606;7.576;2023-04-29T04:49:01;2.35;;;2.10;;
10586;SDS011;5341;47.606;7.576;2023-04-29T04:51:31;2.22;;;2.03;;
10586;SDS011;5341;47.606;7.576;2023-04-29T04:54:00;2.53;;;2.30;;
10586;SDS011;5341;47.606;7.576;2023-04-29T04:56:30;4.10;;;2.40;;
10586;SDS011;5341;47.606;7.576;2023-04-29T04:58:59;4.15;;;2.40;;
10586;SDS011;5341;47.606;7.576;2023-04-29T05:01:26;4.40;;;2.50;;
10586;SDS011;5341;47.606;7.576;2023-04-29T05:03:54;3.40;;;2.30;;
10586;SDS011;5341;47.606;7.576;2023-04-29T05:06:25;3.58;;;2.70;;
10586;SDS011;5341;47.606;7.576;2023-04-29T05:08:53;3.30;;;2.70;;
10586;SDS011;5341;47.606;7.576;2023-04-29T05:11:24;3.22;;;2.47;;
10586;SDS011;5341;47.606;7.576;2023-04-29T05:14:18;3.03;;;2.65;;
10586;SDS011;5341;47.606;7.576;2023-04-29T05:16:50;2.92;;;2.45;;
10586;SDS011;5341;47.606;7.576;2023-04-29T05:19:19;3.78;;;3.03;;
10586;SDS011;5341;47.606;7.576;2023-04-29T05:21:47;4.38;;;2.70;;
10586;SDS011;5341;47.606;7.576;2023-04-29T05:24:15;3.20;;;2.65;;
10586;SDS011;5341;47.606;7.576;2023-04-29T05:26:44;3.92;;;2.63;;
10586;SDS011;5341;47.606;7.576;2023-04-29T05:29:12;4.15;;;2.83;;
10586;SDS011;5341;47.606;7.576;2023-04-29T05:31:51;3.90;;;2.83;;
10586;SDS011;5341;47.606;7.576;2023-04-29T05:34:23;3.78;;;3.00;;
10586;SDS011;5341;47.606;7.576;2023-04-29T05:36:52;3.78;;;3.30;;
10586;SDS011;5341;47.606;7.576;2023-04-29T05:39:24;3.83;;;3.50;;
10586;SDS011;5341;47.606;7.576;2023-04-29T05:42:05;5.47;;;3.67;;
10586;SDS011;5341;47.606;7.576;2023-04-29T05:44:40;5.10;;;4.20;;
10586;SDS011;5341;47.606;7.576;2023-04-29T05:47:09;5.80;;;4.05;;
10586;SDS011;5341;47.606;7.576;2023-04-29T05:49:38;4.53;;;4.13;;
10586;SDS011;5341;47.606;7.576;2023-04-29T05:52:07;4.65;;;4.15;;
10586;SDS011;5341;47.606;7.576;2023-04-29T05:54:40;6.13;;;4.05;;
10586;SDS011;5341;47.606;7.576;2023-04-29T05:57:12;4.22;;;3.83;;
10586;SDS011;5341;47.606;7.576;2023-04-29T05:59:40;5.78;;;4.18;;
10586;SDS011;5341;47.606;7.576;2023-04-29T06:02:09;4.97;;;4.38;;
10586;SDS011;5341;47.606;7.576;2023-04-29T06:04:39;5.60;;;4.88;;
10586;SDS011;5341;47.606;7.576;2023-04-29T06:07:13;7.90;;;4.80;;
10586;SDS011;5341;47.606;7.576;2023-04-29T06:09:49;5.97;;;4.95;;
10586;SDS011;5341;47.606;7.576;2023-04-29T06:12:19;5.15;;;4.65;;
10586;SDS011;5341;47.606;7.576;2023-04-29T06:14:47;7.22;;;4.68;;
10586;SDS011;5341;47.606;7.576;2023-04-29T06:17:15;6.35;;;4.78;;
10586;SDS011;5341;47.606;7.576;2023-04-29T06:19:42;6.00;;;4.57;;
10586;SDS011;5341;47.606;7.576;2023-04-29T06:22:10;4.75;;;3.95;;
10586;SDS011;5341;47.606;7.576;2023-04-29T06:24:43;5.90;;;4.13;;
10586;SDS011;5341;47.606;7.576;2023-04-29T06:27:18;5.22;;;3.60;;
10586;SDS011;5341;47.606;7.576;2023-04-29T06:29:47;4.00;;;3.38;;
10586;SDS011;5341;47.606;7.576;2023-04-29T06:32:15;4.55;;;3.67;;
10586;SDS011;5341;47.606;7.576;2023-04-29T06:34:43;5.00;;;3.67;;
10586;SDS011;5341;47.606;7.576;2023-04-29T06:37:29;3.78;;;3.40;;
10586;SDS011;5341;47.606;7.576;2023-04-29T06:40:17;4.07;;;3.70;;
10586;SDS011;5341;47.606;7.576;2023-04-29T06:43:22;4.68;;;4.13;;
10586;SDS011;5341;47.606;7.576;2023-04-29T06:46:11;5.85;;;4.22;;
10586;SDS011;5341;47.606;7.576;2023-04-29T06:48:59;5.53;;;4.60;;
10586;SDS011;5341;47.606;7.576;2023-04-29T06:51:26;4.70;;;4.30;;
10586;SDS011;5341;47.606;7.576;2023-04-29T06:53:56;5.57;;;5.03;;
10586;SDS011;5341;47.606;7.576;2023-04-29T06:56:24;5.57;;;5.00;;
10586;SDS011;5341;47.606;7.576;2023-04-29T06:58:53;7.32;;;5.22;;
10586;SDS011;5341;47.606;7.576;2023-04-29T07:01:20;6.32;;;5.43;;
10586;SDS011;5341;47.606;7.576;2023-04-29T07:03:49;5.45;;;4.95;;
10586;SDS011;5341;47.606;7.576;2023-04-29T07:06:18;6.60;;;6.00;;
10586;SDS011;5341;47.606;7.576;2023-04-29T07:08:46;10.30;;;5.43;;
10586;SDS011;5341;47.606;7.576;2023-04-29T07:11:14;6.03;;;5.38;;
10586;SDS011;5341;47.606;7.576;2023-04-29T07:13:41;5.43;;;4.93;;
10586;SDS011;5341;47.606;7.576;2023-04-29T07:16:15;5.45;;;4.95;;
10586;SDS011;5341;47.606;7.576;2023-04-29T07:18:44;5.75;;;5.15;;
10586;SDS011;5341;47.606;7.576;2023-04-29T07:21:12;5.88;;;5.00;;
10586;SDS011;5341;47.606;7.576;2023-04-29T07:23:40;5.32;;;4.55;;
10586;SDS011;5341;47.606;7.576;2023-04-29T07:26:09;8.20;;;5.18;;
10586;SDS011;5341;47.606;7.576;2023-04-29T07:28:37;6.47;;;4.93;;
10586;SDS011;5341;47.606;7.576;2023-04-29T07:31:05;6.80;;;5.72;;
10586;SDS011;5341;47.606;7.576;2023-04-29T07:33:34;6.60;;;6.00;;
10586;SDS011;5341;47.606;7.576;2023-04-29T07:36:02;6.55;;;5.97;;
10586;SDS011;5341;47.606;7.576;2023-04-29T07:38:30;6.50;;;5.90;;
10586;SDS011;5341;47.606;7.576;2023-04-29T07:40:57;6.05;;;5.43;;
10586;SDS011;5341;47.606;7.576;2023-04-29T07:43:25;5.80;;;5.25;;
10586;SDS011;5341;47.606;7.576;2023-04-29T07:45:53;5.38;;;4.90;;
10586;SDS011;5341;47.606;7.576;2023-04-29T07:48:20;5.18;;;4.72;;
10586;SDS011;5341;47.606;7.576;2023-04-29T07:50:49;5.60;;;4.43;;
10586;SDS011;5341;47.606;7.576;2023-04-29T07:53:16;4.57;;;4.18;;
10586;SDS011;5341;47.606;7.576;2023-04-29T07:55:44;4.97;;;4.57;;
10586;SDS011;5341;47.606;7.576;2023-04-29T07:58:12;3.72;;;3.42;;
10586;SDS011;5341;47.606;7.576;2023-04-29T08:00:40;3.70;;;3.40;;
10586;SDS011;5341;47.606;7.576;2023-04-29T08:03:09;4.32;;;3.35;;
10586;SDS011;5341;47.606;7.576;2023-04-29T08:05:38;3.60;;;3.30;;
10586;SDS011;5341;47.606;7.576;2023-04-29T08:08:07;4.47;;;2.85;;
10586;SDS011;5341;47.606;7.576;2023-04-29T08:10:36;8.15;;;3.20;;
10586;SDS011;5341;47.606;7.576;2023-04-29T08:13:08;4.72;;;3.00;;
10586;SDS011;5341;47.606;7.576;2023-04-29T08:15:36;3.95;;;2.70;;
10586;SDS011;5341;47.606;7.576;2023-04-29T08:18:03;5.38;;;3.35;;
10586;SDS011;5341;47.606;7.576;2023-04-29T08:20:31;4.03;;;2.50;;
10586;SDS011;5341;47.606;7.576;2023-04-29T08:22:58;2.92;;;2.60;;
10586;SDS011;5341;47.606;7.576;2023-04-29T08:25:28;4.07;;;2.53;;
10586;SDS011;5341;47.606;7.576;2023-04-29T08:27:59;4.13;;;2.75;;
10586;SDS011;5341;47.606;7.576;2023-04-29T08:30:27;2.60;;;2.38;;
10586;SDS011;5341;47.606;7.576;2023-04-29T08:32:56;4.90;;;2.50;;
10586;SDS011;5341;47.606;7.576;2023-04-29T08:35:24;3.88;;;2.35;;
10586;SDS011;5341;47.606;7.576;2023-04-29T08:37:57;4.22;;;2.60;;
10586;SDS011;5341;47.606;7.576;2023-04-29T08:40:25;2.97;;;2.42;;
10586;SDS011;5341;47.606;7.576;2023-04-29T08:42:56;3.28;;;2.45;;
10586;SDS011;5341;47.606;7.576;2023-04-29T08:45:24;2.83;;;2.22;;
10586;SDS011;5341;47.606;7.576;2023-04-29T08:47:55;6.80;;;2.40;;
10586;SDS011;5341;47.606;7.576;2023-04-29T08:50:24;3.17;;;2.45;;
10586;SDS011;5341;47.606;7.576;2023-04-29T08:52:54;3.35;;;2.60;;
10586;SDS011;5341;47.606;7.576;2023-04-29T08:55:22;2.88;;;2.20;;
10586;SDS011;5341;47.606;7.576;2023-04-29T08:57:51;5.47;;;2.60;;
10586;SDS011;5341;47.606;7.576;2023-04-29T09:00:24;2.58;;;2.00;;
10586;SDS011;5341;47.606;7.576;2023-04-29T09:02:53;3.13;;;2.40;;
10586;SDS011;5341;47.606;7.576;2023-04-29T09:05:24;3.33;;;2.70;;
10586;SDS011;5341;47.606;7.576;2023-04-29T09:07:53;3.72;;;2.60;;
10586;SDS011;5341;47.606;7.576;2023-04-29T09:10:26;4.30;;;2.60;;
10586;SDS011;5341;47.606;7.576;2023-04-29T09:12:55;3.88;;;2.10;;
10586;SDS011;5341;47.606;7.576;2023-04-29T09:15:25;2.75;;;2.55;;
10586;SDS011;5341;47.606;7.576;2023-04-29T09:17:53;3.97;;;2.20;;
10586;SDS011;5341;47.606;7.576;2023-04-29T09:20:25;2.97;;;2.25;;
10586;SDS011;5341;47.606;7.576;2023-04-29T09:22:54;2.85;;;2.22;;
10586;SDS011;5341;47.606;7.576;2023-04-29T09:25:24;3.30;;;2.45;;
10586;SDS011;5341;47.606;7.576;2023-04-29T09:27:52;3.10;;;2.50;;
10586;SDS011;5341;47.606;7.576;2023-04-29T09:30:20;3.67;;;2.50;;
10586;SDS011;5341;47.606;7.576;2023-04-29T09:33:06;11.45;;;2.50;;
10586;SDS011;5341;47.606;7.576;2023-04-29T09:35:34;5.75;;;2.15;;
10586;SDS011;5341;47.606;7.576;2023-04-29T09:38:10;3.50;;;2.50;;
10586;SDS011;5341;47.606;7.576;2023-04-29T09:40:39;2.78;;;2.42;;
10586;SDS011;5341;47.606;7.576;2023-04-29T09:43:11;3.50;;;2.60;;
10586;SDS011;5341;47.606;7.576;2023-04-29T09:45:43;4.47;;;2.70;;
10586;SDS011;5341;47.606;7.576;2023-04-29T09:48:17;2.20;;;2.00;;
10586;SDS011;5341;47.606;7.576;2023-04-29T09:50:57;2.83;;;2.15;;
10586;SDS011;5341;47.606;7.576;2023-04-29T09:53:27;2.50;;;2.20;;
10586;SDS011;5341;47.606;7.576;2023-04-29T09:55:59;4.07;;;2.00;;
10586;SDS011;5341;47.606;7.576;2023-04-29T09:58:28;2.60;;;2.20;;
10586;SDS011;5341;47.606;7.576;2023-04-29T10:01:01;2.65;;;2.42;;
10586;SDS011;5341;47.606;7.576;2023-04-29T10:03:32;2.22;;;2.03;;
10586;SDS011;5341;47.606;7.576;2023-04-29T10:06:01;2.42;;;2.10;;
10586;SDS011;5341;47.606;7.576;2023-04-29T10:08:30;3.13;;;2.10;;
10586;SDS011;5341;47.606;7.576;2023-04-29T10:10:59;3.63;;;2.50;;
10586;SDS011;5341;47.606;7.576;2023-04-29T10:13:29;2.20;;;2.00;;
10586;SDS011;5341;47.606;7.576;2023-04-29T10:16:01;2.47;;;2.25;;
10586;SDS011;5341;47.606;7.576;2023-04-29T10:18:39;2.10;;;1.90;;
10586;SDS011;5341;47.606;7.576;2023-04-29T10:21:10;2.85;;;2.22;;
10586;SDS011;5341;47.606;7.576;2023-04-29T10:23:40;2.92;;;2.00;;
10586;SDS011;5341;47.606;7.576;2023-04-29T10:26:10;2.38;;;2.17;;
10586;SDS011;5341;47.606;7.576;2023-04-29T10:28:40;2.60;;;2.10;;
10586;SDS011;5341;47.606;7.576;2023-04-29T10:31:10;2.65;;;2.13;;
10586;SDS011;5341;47.606;7.576;2023-04-29T10:33:39;4.25;;;2.40;;
10586;SDS011;5341;47.606;7.576;2023-04-29T10:36:11;2.60;;;2.40;;
10586;SDS011;5341;47.606;7.576;2023-04-29T10:38:41;3.70;;;2.53;;
10586;SDS011;5341;47.606;7.576;2023-04-29T10:41:14;2.35;;;2.10;;
10586;SDS011;5341;47.606;7.576;2023-04-29T10:43:49;2.78;;;2.47;;
10586;SDS011;5341;47.606;7.576;2023-04-29T10:46:17;2.90;;;2.70;;
10586;SDS011;5341;47.606;7.576;2023-04-29T10:48:48;3.20;;;2.90;;
10586;SDS011;5341;47.606;7.576;2023-04-29T10:51:26;2.78;;;2.58;;
10586;SDS011;5341;47.606;7.576;2023-04-29T10:53:59;4.05;;;2.80;;
10586;SDS011;5341;47.606;7.576;2023-04-29T10:56:34;4.53;;;2.95;;
10586;SDS011;5341;47.606;7.576;2023-04-29T10:59:03;3.30;;;2.85;;
10586;SDS011;5341;47.606;7.576;2023-04-29T11:01:41;3.33;;;3.00;;
10586;SDS011;5341;47.606;7.576;2023-04-29T11:04:13;5.30;;;3.40;;
10586;SDS011;5341;47.606;7.576;2023-04-29T11:06:45;4.65;;;3.30;;
10586;SDS011;5341;47.606;7.576;2023-04-29T11:09:17;3.92;;;3.50;;
10586;SDS011;5341;47.606;7.576;2023-04-29T11:11:46;6.25;;;3.13;;
10586;SDS011;5341;47.606;7.576;2023-04-29T11:14:36;3.85;;;2.90;;
10586;SDS011;5341;47.606;7.576;2023-04-29T11:17:07;3.40;;;3.10;;
10586;SDS011;5341;47.606;7.576;2023-04-29T11:19:39;4.18;;;3.17;;
10586;SDS011;5341;47.606;7.576;2023-04-29T11:22:13;3.38;;;3.03;;
10586;SDS011;5341;47.606;7.576;2023-04-29T11:24:52;3.53;;;2.50;;
10586;SDS011;5341;47.606;7.576;2023-04-29T11:27:22;3.42;;;2.88;;
10586;SDS011;5341;47.606;7.576;2023-04-29T11:29:51;3.30;;;3.00;;
10586;SDS011;5341;47.606;7.576;2023-04-29T11:32:24;3.90;;;3.30;;
10586;SDS011;5341;47.606;7.576;2023-04-29T11:34:53;2.88;;;2.67;;
10586;SDS011;5341;47.606;7.576;2023-04-29T11:37:22;4.35;;;2.75;;
10586;SDS011;5341;47.606;7.576;2023-04-29T11:39:50;4.38;;;2.78;;
10586;SDS011;5341;47.606;7.576;2023-04-29T11:42:19;3.35;;;3.05;;
10586;SDS011;5341;47.606;7.576;2023-04-29T11:44:50;3.97;;;3.10;;
10586;SDS011;5341;47.606;7.576;2023-04-29T11:47:18;4.05;;;3.03;;
10586;SDS011;5341;47.606;7.576;2023-04-29T11:49:47;5.45;;;2.88;;
10586;SDS011;5341;47.606;7.576;2023-04-29T11:52:15;2.92;;;2.42;;
10586;SDS011;5341;47.606;7.576;2023-04-29T11:54:43;3.28;;;2.50;;
10586;SDS011;5341;47.606;7.576;2023-04-29T11:57:13;2.92;;;2.30;;
10586;SDS011;5341;47.606;7.576;2023-04-29T11:59:41;4.90;;;2.30;;
10586;SDS011;5341;47.606;7.576;2023-04-29T12:02:10;2.58;;;2.33;;
10586;SDS011;5341;47.606;7.576;2023-04-29T12:04:48;2.47;;;2.28;;
10586;SDS011;5341;47.606;7.576;2023-04-29T12:07:17;2.50;;;2.30;;
10586;SDS011;5341;47.606;7.576;2023-04-29T12:09:44;2.22;;;2.00;;
10586;SDS011;5341;47.606;7.576;2023-04-29T12:12:13;4.70;;;2.35;;
10586;SDS011;5341;47.606;7.576;2023-04-29T12:14:40;3.53;;;2.38;;
10586;SDS011;5341;47.606;7.576;2023-04-29T12:17:08;2.88;;;2.38;;
10586;SDS011;5341;47.606;7.576;2023-04-29T12:19:36;2.47;;;2.17;;
10586;SDS011;5341;47.606;7.576;2023-04-29T12:22:05;2.67;;;2.30;;
10586;SDS011;5341;47.606;7.576;2023-04-29T12:24:36;3.15;;;1.95;;
10586;SDS011;5341;47.606;7.576;2023-04-29T12:27:07;3.85;;;2.05;;
10586;SDS011;5341;47.606;7.576;2023-04-29T12:29:36;2.35;;;1.90;;
10586;SDS011;5341;47.606;7.576;2023-04-29T12:32:05;2.45;;;1.85;;
10586;SDS011;5341;47.606;7.576;2023-04-29T12:34:33;2.88;;;2.22;;
10586;SDS011;5341;47.606;7.576;2023-04-29T12:37:01;3.40;;;1.88;;
10586;SDS011;5341;47.606;7.576;2023-04-29T12:39:29;2.05;;;1.60;;
10586;SDS011;5341;47.606;7.576;2023-04-29T12:41:59;1.85;;;1.75;;
10586;SDS011;5341;47.606;7.576;2023-04-29T12:44:33;3.35;;;1.80;;
10586;SDS011;5341;47.606;7.576;2023-04-29T12:47:06;3.42;;;2.17;;
10586;SDS011;5341;47.606;7.576;2023-04-29T12:49:34;2.22;;;1.77;;
10586;SDS011;5341;47.606;7.576;2023-04-29T12:52:02;2.72;;;1.92;;
10586;SDS011;5341;47.606;7.576;2023-04-29T12:54:30;2.30;;;2.10;;
10586;SDS011;5341;47.606;7.576;2023-04-29T12:57:00;2.92;;;2.20;;
10586;SDS011;5341;47.606;7.576;2023-04-29T12:59:28;3.00;;;2.28;;
10586;SDS011;5341;47.606;7.576;2023-04-29T13:01:55;3.45;;;2.13;;
10586;SDS011;5341;47.606;7.576;2023-04-29T13:04:23;4.35;;;2.13;;
10586;SDS011;5341;47.606;7.576;2023-04-29T13:06:51;3.90;;;2.30;;
10586;SDS011;5341;47.606;7.576;2023-04-29T13:09:24;2.65;;;2.30;;
10586;SDS011;5341;47.606;7.576;2023-04-29T13:11:52;4.50;;;2.05;;
10586;SDS011;5341;47.606;7.576;2023-04-29T13:14:21;1.95;;;1.70;;
10586;SDS011;5341;47.606;7.576;2023-04-29T13:16:48;2.70;;;2.00;;
10586;SDS011;5341;47.606;7.576;2023-04-29T13:19:16;3.35;;;1.75;;
10586;SDS011;5341;47.606;7.576;2023-04-29T13:21:43;1.88;;;1.73;;
10586;SDS011;5341;47.606;7.576;2023-04-29T13:24:12;2.15;;;1.80;;
10586;SDS011;5341;47.606;7.576;2023-04-29T13:26:42;2.63;;;2.00;;
10586;SDS011;5341;47.606;7.576;2023-04-29T13:29:10;3.13;;;1.83;;
10586;SDS011;5341;47.606;7.576;2023-04-29T13:31:39;3.17;;;1.80;;
10586;SDS011;5341;47.606;7.576;2023-04-29T13:34:08;3.15;;;1.95;;
10586;SDS011;5341;47.606;7.576;2023-04-29T13:36:35;3.22;;;1.80;;
10586;SDS011;5341;47.606;7.576;2023-04-29T13:39:03;2.15;;;1.95;;
10586;SDS011;5341;47.606;7.576;2023-04-29T13:41:30;3.00;;;1.98;;
10586;SDS011;5341;47.606;7.576;2023-04-29T13:43:59;2.95;;;1.70;;
10586;SDS011;5341;47.606;7.576;2023-04-29T13:46:26;2.55;;;2.00;;
10586;SDS011;5341;47.606;7.576;2023-04-29T13:48:55;3.58;;;1.90;;
10586;SDS011;5341;47.606;7.576;2023-04-29T13:51:23;7.13;;;2.20;;
10586;SDS011;5341;47.606;7.576;2023-04-29T13:53:54;3.03;;;2.00;;
10586;SDS011;5341;47.606;7.576;2023-04-29T13:56:39;2.05;;;1.85;;
10586;SDS011;5341;47.606;7.576;2023-04-29T13:59:07;2.42;;;1.92;;
10586;SDS011;5341;47.606;7.576;2023-04-29T14:01:40;2.55;;;1.98;;
10586;SDS011;5341;47.606;7.576;2023-04-29T14:04:11;2.75;;;2.10;;
10586;SDS011;5341;47.606;7.576;2023-04-29T14:06:41;4.47;;;2.08;;
10586;SDS011;5341;47.606;7.576;2023-04-29T14:09:09;2.28;;;1.90;;
10586;SDS011;5341;47.606;7.576;2023-04-29T14:11:41;3.53;;;1.88;;
10586;SDS011;5341;47.606;7.576;2023-04-29T14:14:11;2.90;;;2.05;;
10586;SDS011;5341;47.606;7.576;2023-04-29T14:16:40;3.17;;;1.90;;
10586;SDS011;5341;47.606;7.576;2023-04-29T14:19:08;3.15;;;1.92;;
10586;SDS011;5341;47.606;7.576;2023-04-29T14:21:38;2.97;;;1.73;;
10586;SDS011;5341;47.606;7.576;2023-04-29T14:24:09;2.00;;;1.80;;
10586;SDS011;5341;47.606;7.576;2023-04-29T14:26:39;3.33;;;1.80;;
10586;SDS011;5341;47.606;7.576;2023-04-29T14:29:07;5.00;;;2.10;;
10586;SDS011;5341;47.606;7.576;2023-04-29T14:31:35;3.28;;;2.10;;
10586;SDS011;5341;47.606;7.576;2023-04-29T14:34:04;3.28;;;2.40;;
10586;SDS011;5341;47.606;7.576;2023-04-29T14:36:34;3.28;;;2.03;;
10586;SDS011;5341;47.606;7.576;2023-04-29T14:39:11;3.70;;;2.03;;
10586;SDS011;5341;47.606;7.576;2023-04-29T14:41:40;4.32;;;1.80;;
10586;SDS011;5341;47.606;7.576;2023-04-29T14:44:13;2.50;;;1.98;;
10586;SDS011;5341;47.606;7.576;2023-04-29T14:46:44;3.72;;;2.30;;
10586;SDS011;5341;47.606;7.576;2023-04-29T14:49:12;3.47;;;2.35;;
10586;SDS011;5341;47.606;7.576;2023-04-29T14:51:40;4.15;;;2.20;;
10586;SDS011;5341;47.606;7.576;2023-04-29T14:54:09;3.78;;;2.58;;
10586;SDS011;5341;47.606;7.576;2023-04-29T14:56:42;2.92;;;2.47;;
10586;SDS011;5341;47.606;7.576;2023-04-29T14:59:14;2.97;;;2.42;;
10586;SDS011;5341;47.606;7.576;2023-04-29T15:01:42;3.40;;;2.55;;
10586;SDS011;5341;47.606;7.576;2023-04-29T15:04:19;3.30;;;2.65;;
10586;SDS011;5341;47.606;7.576;2023-04-29T15:06:47;4.97;;;3.10;;
10586;SDS011;5341;47.606;7.576;2023-04-29T15:09:15;5.13;;;2.90;;
10586;SDS011;5341;47.606;7.576;2023-04-29T15:11:47;4.25;;;2.40;;
10586;SDS011;5341;47.606;7.576;2023-04-29T15:14:16;4.35;;;2.83;;
10586;SDS011;5341;47.606;7.576;2023-04-29T15:16:44;2.90;;;2.60;;
10586;SDS011;5341;47.606;7.576;2023-04-29T15:19:12;3.08;;;2.60;;
10586;SDS011;5341;47.606;7.576;2023-04-29T15:21:45;2.92;;;2.58;;